createdAt,value
2019-01-18T00:01:47.078Z,94257.23
2019-01-18T00:04:15.925Z,94248.90
2019-01-18T00:06:44.590Z,94257.05
2019-01-18T00:09:13.430Z,94252.61
2019-01-18T00:11:42.062Z,94261.86
2019-01-18T00:14:10.731Z,94263.08
2019-01-18T00:16:40.097Z,94267.55
2019-01-18T00:19:08.762Z,94266.40
2019-01-18T00:21:37.322Z,94267.34
2019-01-18T00:24:05.962Z,94280.05
2019-01-18T00:26:34.544Z,94276.17
2019-01-18T00:29:03.111Z,94285.56
2019-01-18T00:31:31.700Z,94287.92
2019-01-18T00:34:00.311Z,94289.81
2019-01-18T00:36:28.888Z,94299.42
2019-01-18T00:38:57.480Z,94303.77
2019-01-18T00:41:26.123Z,94319.91
2019-01-18T00:43:54.704Z,94318.25
2019-01-18T00:46:23.272Z,94325.69
2019-01-18T00:48:51.852Z,94328.17
2019-01-18T00:51:20.425Z,94333.80
2019-01-18T00:53:48.999Z,94333.36
2019-01-18T00:56:17.561Z,94335.70
2019-01-18T00:58:46.141Z,94342.72
2019-01-18T01:01:14.716Z,94350.50
2019-01-18T01:03:43.292Z,94354.72
2019-01-18T01:06:11.857Z,94357.64
2019-01-18T01:08:40.441Z,94351.28
2019-01-18T01:11:09.082Z,94351.76
2019-01-18T01:13:37.679Z,94361.82
2019-01-18T01:16:06.271Z,94361.60
2019-01-18T01:18:34.843Z,94362.70
2019-01-18T01:21:03.603Z,94374.48
2019-01-18T01:23:32.237Z,94387.34
2019-01-18T01:26:00.797Z,94395.36
2019-01-18T01:28:29.387Z,94404.42
2019-01-18T01:30:57.954Z,94410.84
2019-01-18T01:33:26.521Z,94414.69
2019-01-18T01:35:55.154Z,94422.05
2019-01-18T01:38:23.728Z,94423.98
2019-01-18T01:40:52.368Z,94423.41
2019-01-18T01:43:20.946Z,94427.98
2019-01-18T01:45:49.517Z,94445.73
2019-01-18T01:48:18.067Z,94440.91
2019-01-18T01:50:46.686Z,94441.19
2019-01-18T01:53:15.258Z,94455.45
2019-01-18T01:55:43.864Z,94450.25
2019-01-18T01:58:12.455Z,94458.70
2019-01-18T02:00:41.128Z,94462.45
2019-01-18T02:03:09.677Z,94464.50
2019-01-18T02:05:38.259Z,94472.75
2019-01-18T02:08:06.827Z,94473.06
2019-01-18T02:10:35.499Z,94482.13
2019-01-18T02:13:04.135Z,94484.92
2019-01-18T02:15:32.803Z,94492.34
2019-01-18T02:18:01.394Z,94491.44
2019-01-18T02:20:29.986Z,94490.28
2019-01-18T02:22:58.554Z,94490.97
2019-01-18T02:25:27.120Z,94497.61
2019-01-18T02:27:55.840Z,94504.07
2019-01-18T02:30:26.856Z,94516.27
2019-01-18T02:32:55.471Z,94517.84
2019-01-18T02:35:24.264Z,94507.30
2019-01-18T02:37:52.915Z,94515.65
2019-01-18T02:40:21.478Z,94519.83
2019-01-18T02:42:50.122Z,94528.02
2019-01-18T02:45:20.045Z,94527.10
2019-01-18T02:47:48.777Z,94534.66
2019-01-18T02:50:17.558Z,94537.02
2019-01-18T02:52:46.221Z,94539.12
2019-01-18T02:55:15.141Z,94536.40
2019-01-18T02:57:43.696Z,94553.34
2019-01-18T03:00:15.321Z,94546.65
2019-01-18T03:02:43.893Z,94563.85
2019-01-18T03:05:13.413Z,94566.63
2019-01-18T03:07:42.082Z,94557.09
2019-01-18T03:10:14.210Z,94567.31
2019-01-18T03:12:42.802Z,94566.78
2019-01-18T03:15:10.883Z,94576.55
2019-01-18T03:17:39.473Z,94578.77
2019-01-18T03:20:09.983Z,94579.43
2019-01-18T03:22:38.570Z,94588.95
2019-01-18T03:25:09.846Z,94590.00
2019-01-18T03:27:38.440Z,94597.65
2019-01-18T03:30:18.056Z,94589.95
2019-01-18T03:32:39.737Z,94600.02
2019-01-18T03:35:09.944Z,94616.33
2019-01-18T03:37:38.546Z,94616.50
2019-01-18T03:40:08.369Z,94626.70
2019-01-18T03:42:36.952Z,94629.05
2019-01-18T03:45:06.964Z,94627.03
2019-01-18T03:47:35.532Z,94636.70
2019-01-18T03:50:04.796Z,94645.85
2019-01-18T03:52:33.377Z,94645.17
2019-01-18T03:55:01.953Z,94647.80
2019-01-18T03:57:30.599Z,94653.74
2019-01-18T03:59:59.155Z,94657.63
2019-01-18T04:02:27.809Z,94662.55
2019-01-18T04:04:56.484Z,94670.16
2019-01-18T04:07:25.272Z,94680.39
2019-01-18T04:09:53.819Z,94677.97
2019-01-18T04:12:22.390Z,94684.99
2019-01-18T04:14:51.141Z,94688.67
2019-01-18T04:17:19.750Z,94691.05
2019-01-18T04:19:48.358Z,94691.42
2019-01-18T04:22:16.925Z,94689.05
2019-01-18T04:24:45.471Z,94687.76
2019-01-18T04:27:14.041Z,94702.84
2019-01-18T04:29:42.598Z,94699.11
2019-01-18T04:32:11.185Z,94701.13
2019-01-18T04:34:39.780Z,94689.81
2019-01-18T04:37:08.454Z,94703.00
2019-01-18T04:39:37.014Z,94705.63
2019-01-18T04:42:05.925Z,94712.80
2019-01-18T04:44:34.486Z,94711.03
2019-01-18T04:47:03.065Z,94703.36
2019-01-18T04:49:31.622Z,94712.79
2019-01-18T04:52:01.468Z,94710.16
2019-01-18T04:54:30.007Z,94718.76
2019-01-18T04:56:58.604Z,94722.70
2019-01-18T04:59:27.158Z,94732.03
2019-01-18T05:01:55.723Z,94732.95
2019-01-18T05:04:24.309Z,94737.84
2019-01-18T05:06:53.094Z,94743.89
2019-01-18T05:09:21.681Z,94749.02
2019-01-18T05:11:50.257Z,94758.89
2019-01-18T05:14:18.842Z,94761.22
2019-01-18T05:16:47.397Z,94764.23
2019-01-18T05:19:16.002Z,94765.45
2019-01-18T05:21:44.660Z,94764.01
2019-01-18T05:24:13.228Z,94773.30
2019-01-18T05:26:41.807Z,94772.81
2019-01-18T05:29:10.397Z,94773.26
2019-01-18T05:31:39.028Z,94780.75
2019-01-18T05:34:07.678Z,94783.68
2019-01-18T05:36:36.256Z,94783.51
2019-01-18T05:39:06.776Z,94787.25
2019-01-18T05:41:35.453Z,94789.27
2019-01-18T05:44:04.083Z,94789.61
2019-01-18T05:46:32.714Z,94785.67
2019-01-18T05:49:01.297Z,94792.43
2019-01-18T05:51:30.094Z,94797.02
2019-01-18T05:53:58.682Z,94801.95
2019-01-18T05:56:27.258Z,94806.75
2019-01-18T05:58:55.830Z,94810.66
2019-01-18T06:01:24.727Z,94813.13
2019-01-18T06:03:53.502Z,94820.36
2019-01-18T06:06:22.075Z,94814.75
2019-01-18T06:08:50.692Z,94823.03
2019-01-18T06:11:19.329Z,94824.40
2019-01-18T06:13:47.938Z,94824.08
2019-01-18T06:16:16.585Z,94831.32
2019-01-18T06:18:45.325Z,94836.50
2019-01-18T06:21:13.904Z,94842.95
2019-01-18T06:23:42.478Z,94844.84
2019-01-18T06:26:11.119Z,94845.03
2019-01-18T06:28:39.729Z,94845.06
2019-01-18T06:31:08.644Z,94844.40
2019-01-18T06:33:37.266Z,94847.87
2019-01-18T06:36:05.916Z,94841.89
2019-01-18T06:38:34.483Z,94839.47
2019-01-18T06:41:17.084Z,94843.73
2019-01-18T06:43:45.694Z,94848.17
2019-01-18T06:46:14.279Z,94855.29
2019-01-18T06:48:43.330Z,94856.47
2019-01-18T06:51:11.920Z,94857.97
2019-01-18T06:53:40.566Z,94862.63
2019-01-18T06:56:09.167Z,94872.00
2019-01-18T06:58:37.756Z,94884.02
2019-01-18T07:01:08.626Z,94881.31
2019-01-18T07:03:36.674Z,94886.67
2019-01-18T07:06:05.329Z,94894.55
2019-01-18T07:08:33.911Z,94897.59
2019-01-18T07:11:02.549Z,94898.08
2019-01-18T07:13:31.060Z,94908.51
2019-01-18T07:15:59.713Z,94907.41
2019-01-18T07:18:28.302Z,94916.30
2019-01-18T07:20:56.934Z,94921.14
2019-01-18T07:23:25.496Z,94928.64
2019-01-18T07:25:54.075Z,94935.08
2019-01-18T07:28:22.645Z,94932.16
2019-01-18T07:30:51.200Z,94936.77
2019-01-18T07:33:19.818Z,94945.16
2019-01-18T07:35:48.387Z,94943.58
2019-01-18T07:38:17.067Z,94954.11
2019-01-18T07:40:45.721Z,94957.34
2019-01-18T07:43:14.302Z,94958.11
2019-01-18T07:45:42.904Z,94963.19
2019-01-18T07:48:11.457Z,94964.66
2019-01-18T07:50:40.050Z,94968.42
2019-01-18T07:53:09.273Z,94972.15
2019-01-18T07:55:37.851Z,94977.44
2019-01-18T07:58:06.730Z,94975.03
2019-01-18T08:00:35.307Z,94984.71
2019-01-18T08:03:04.162Z,94983.70
2019-01-18T08:05:32.991Z,94987.38
2019-01-18T08:08:03.166Z,94998.88
2019-01-18T08:10:31.813Z,94995.29
2019-01-18T08:13:00.500Z,95003.09
2019-01-18T08:15:29.819Z,95001.41
2019-01-18T08:17:58.553Z,95010.05
2019-01-18T08:20:28.770Z,95008.45
2019-01-18T08:22:57.609Z,95017.69
2019-01-18T08:25:26.427Z,95023.16
2019-01-18T08:27:55.285Z,95030.62
2019-01-18T08:30:25.670Z,95038.85
2019-01-18T08:32:54.305Z,95038.39
2019-01-18T08:35:23.630Z,95038.66
2019-01-18T08:37:52.710Z,95032.63
2019-01-18T08:40:29.545Z,95040.50
2019-01-18T08:42:58.159Z,95040.21
2019-01-18T08:45:47.565Z,95051.45
2019-01-18T08:48:16.120Z,95049.11
2019-01-18T08:50:44.780Z,95053.39
2019-01-18T08:53:13.453Z,95053.68
2019-01-18T08:55:42.088Z,95055.42
2019-01-18T08:58:10.679Z,95056.03
2019-01-18T09:00:39.250Z,95058.33
2019-01-18T09:03:08.008Z,95058.73
2019-01-18T09:05:36.650Z,95066.42
2019-01-18T09:08:05.518Z,95068.88
2019-01-18T09:10:34.244Z,95063.66
2019-01-18T09:13:02.831Z,95061.34
2019-01-18T09:15:31.649Z,95071.33
2019-01-18T09:18:00.337Z,95070.17
2019-01-18T09:20:29.228Z,95063.86
2019-01-18T09:22:57.883Z,95064.73
2019-01-18T09:25:26.494Z,95070.49
2019-01-18T09:27:55.105Z,95064.78
2019-01-18T09:30:25.880Z,95074.09
2019-01-18T09:32:55.220Z,95071.41
2019-01-18T09:35:24.622Z,95071.93
2019-01-18T09:37:53.516Z,95078.59
2019-01-18T09:40:24.110Z,95075.25
2019-01-18T09:42:52.784Z,95083.08
2019-01-18T09:45:21.423Z,95083.70
2019-01-18T09:47:50.270Z,95085.69
2019-01-18T09:50:20.654Z,95079.69
2019-01-18T09:52:49.393Z,95067.99
2019-01-18T09:55:17.965Z,95078.16
2019-01-18T09:57:46.548Z,95076.03
2019-01-18T10:00:18.181Z,95080.78
2019-01-18T10:02:46.830Z,95079.91
2019-01-18T10:05:15.509Z,95079.85
2019-01-18T10:07:44.125Z,95070.32
2019-01-18T10:10:14.614Z,95070.32
2019-01-18T10:12:43.559Z,95080.61
2019-01-18T10:15:15.243Z,95078.34
2019-01-18T10:17:43.811Z,95079.23
2019-01-18T10:20:13.614Z,95073.96
2019-01-18T10:22:42.388Z,95068.36
2019-01-18T10:25:12.310Z,95068.36
2019-01-18T10:27:40.964Z,95071.58
2019-01-18T10:30:18.093Z,95071.26
2019-01-18T10:32:46.757Z,95078.58
2019-01-18T10:35:16.048Z,95082.56
2019-01-18T10:37:44.732Z,95080.52
2019-01-18T10:40:13.820Z,95083.75
2019-01-18T10:42:42.938Z,95087.02
2019-01-18T10:45:12.071Z,95085.27
2019-01-18T10:47:40.745Z,95087.89
2019-01-18T10:50:14.478Z,95091.39
2019-01-18T10:52:43.466Z,95092.83
2019-01-18T10:55:12.277Z,95087.97
2019-01-18T10:57:41.163Z,95086.70
2019-01-18T11:00:13.326Z,95086.66
2019-01-18T11:02:42.015Z,95092.31
2019-01-18T11:05:11.107Z,95092.31
2019-01-18T11:07:39.903Z,95093.22
2019-01-18T11:10:09.574Z,95096.73
2019-01-18T11:12:38.537Z,95105.54
2019-01-18T11:15:10.089Z,95110.38
2019-01-18T11:17:38.671Z,95115.95
2019-01-18T11:20:11.544Z,95124.22
2019-01-18T11:22:40.641Z,95118.25
2019-01-18T11:25:09.473Z,95119.06
2019-01-18T11:27:38.172Z,95125.28
2019-01-18T11:30:09.596Z,95114.14
2019-01-18T11:32:38.358Z,95116.97
2019-01-18T11:35:07.103Z,95116.42
2019-01-18T11:37:35.702Z,95116.33
2019-01-18T11:40:05.848Z,95111.58
2019-01-18T11:42:34.441Z,95106.41
2019-01-18T11:45:03.020Z,95107.24
2019-01-18T11:47:31.713Z,95104.66
2019-01-18T11:50:00.320Z,95110.71
2019-01-18T11:52:28.889Z,95111.00
2019-01-18T11:54:57.462Z,95112.34
2019-01-18T11:57:26.046Z,95108.98
2019-01-18T11:59:54.630Z,95107.70
2019-01-18T12:02:23.321Z,95108.37
2019-01-18T12:05:01.078Z,95111.33
2019-01-18T12:07:29.675Z,95116.36
2019-01-18T12:09:58.322Z,95122.25
2019-01-18T12:12:26.950Z,95125.22
2019-01-18T12:14:55.522Z,95119.59
2019-01-18T12:17:27.448Z,95120.33
2019-01-18T12:19:57.054Z,95128.23
2019-01-18T12:22:25.647Z,95124.30
2019-01-18T12:24:54.336Z,95121.15
2019-01-18T12:27:23.174Z,95122.59
2019-01-18T12:29:51.743Z,95125.70
2019-01-18T12:32:20.337Z,95129.30
2019-01-18T12:34:48.917Z,95130.01
2019-01-18T12:37:17.761Z,95131.43
2019-01-18T12:39:46.391Z,95124.31
2019-01-18T12:42:14.997Z,95128.81
2019-01-18T12:44:43.572Z,95128.31
2019-01-18T12:47:12.394Z,95129.26
2019-01-18T12:49:41.029Z,95122.12
2019-01-18T12:52:09.639Z,95125.63
2019-01-18T12:54:38.326Z,95127.07
2019-01-18T12:57:06.911Z,95132.42
2019-01-18T12:59:35.498Z,95130.36
2019-01-18T13:02:04.287Z,95132.35
2019-01-18T13:04:32.877Z,95131.25
2019-01-18T13:07:01.459Z,95124.95
2019-01-18T13:09:30.163Z,95122.39
2019-01-18T13:12:00.841Z,95126.46
2019-01-18T13:14:29.113Z,95127.53
2019-01-18T13:16:57.679Z,95119.64
2019-01-18T13:19:26.517Z,95120.76
2019-01-18T13:21:55.241Z,95114.57
2019-01-18T13:24:23.807Z,95116.30
2019-01-18T13:26:52.737Z,95125.31
2019-01-18T13:29:21.313Z,95110.38
2019-01-18T13:31:49.937Z,95109.52
2019-01-18T13:34:18.663Z,95110.97
2019-01-18T13:36:47.320Z,95106.26
2019-01-18T13:39:15.916Z,95110.78
2019-01-18T13:41:44.547Z,95115.13
2019-01-18T13:44:13.124Z,95107.47
2019-01-18T13:46:41.722Z,95117.77
2019-01-18T13:49:10.349Z,95116.81
2019-01-18T13:51:39.019Z,95119.62
2019-01-18T13:54:07.867Z,95117.05
2019-01-18T13:56:37.385Z,95115.78
2019-01-18T13:59:05.989Z,95114.89
2019-01-18T14:01:34.655Z,95126.30
2019-01-18T14:04:03.299Z,95119.27
2019-01-18T14:06:31.884Z,95120.64
2019-01-18T14:09:00.491Z,95117.07
2019-01-18T14:11:29.555Z,95122.08
2019-01-18T14:13:58.135Z,95115.06
2019-01-18T14:16:26.931Z,95114.95
2019-01-18T14:18:55.522Z,95112.86
2019-01-18T14:21:24.113Z,95104.53
2019-01-18T14:23:52.689Z,95108.09
2019-01-18T14:26:21.286Z,95107.03
2019-01-18T14:28:49.962Z,95104.39
2019-01-18T14:31:18.690Z,95098.69
2019-01-18T14:33:47.264Z,95105.91
2019-01-18T14:36:16.097Z,95107.02
2019-01-18T14:38:44.892Z,95105.28
2019-01-18T14:41:15.784Z,95100.17
2019-01-18T14:43:43.852Z,95103.11
2019-01-18T14:46:12.431Z,95100.05
2019-01-18T14:48:41.046Z,95098.98
2019-01-18T14:51:09.788Z,95105.01
2019-01-18T14:53:38.397Z,95103.34
2019-01-18T14:56:06.975Z,95106.69
2019-01-18T14:58:35.575Z,95113.69
2019-01-18T15:01:04.379Z,95111.83
2019-01-18T15:03:33.517Z,95116.23
2019-01-18T15:06:02.084Z,95115.39
2019-01-18T15:08:30.874Z,95116.94
2019-01-18T15:10:59.435Z,95120.72
2019-01-18T15:13:28.015Z,95119.72
2019-01-18T15:15:56.595Z,95127.78
2019-01-18T15:18:25.319Z,95120.52
2019-01-18T15:20:53.979Z,95126.16
2019-01-18T15:23:22.809Z,95123.85
2019-01-18T15:25:51.388Z,95126.27
2019-01-18T15:28:20.259Z,95120.78
2019-01-18T15:30:48.833Z,95127.55
2019-01-18T15:33:17.512Z,95124.59
2019-01-18T15:35:46.075Z,95132.89
2019-01-18T15:38:15.276Z,95126.52
2019-01-18T15:40:47.619Z,95131.47
2019-01-18T15:43:18.400Z,95134.44
2019-01-18T15:45:47.291Z,95135.45
2019-01-18T15:48:15.943Z,95136.11
2019-01-18T15:50:44.505Z,95138.46
2019-01-18T15:53:13.151Z,95139.47
2019-01-18T15:55:41.995Z,95149.27
2019-01-18T15:58:10.854Z,95139.86
2019-01-18T16:00:43.758Z,95140.84
2019-01-18T16:03:16.055Z,95141.50
2019-01-18T16:05:42.704Z,95140.82
2019-01-18T16:08:12.394Z,95141.19
2019-01-18T16:10:41.102Z,95141.50
2019-01-18T16:13:10.870Z,95139.30
2019-01-18T16:15:55.635Z,95137.02
2019-01-18T16:18:24.310Z,95136.27
2019-01-18T16:20:52.982Z,95144.16
2019-01-18T16:23:21.588Z,95144.36
2019-01-18T16:25:50.150Z,95145.55
2019-01-18T16:28:18.713Z,95149.91
2019-01-18T16:30:47.281Z,95147.80
2019-01-18T16:33:23.150Z,95141.23
2019-01-18T16:35:46.208Z,95145.37
2019-01-18T16:38:14.819Z,95142.08
2019-01-18T16:40:43.404Z,95142.64
2019-01-18T16:43:19.002Z,95148.50
2019-01-18T16:45:47.667Z,95147.69
2019-01-18T16:48:16.380Z,95154.63
2019-01-18T16:50:45.085Z,95149.75
2019-01-18T16:53:13.723Z,95153.63
2019-01-18T16:55:42.299Z,95153.81
2019-01-18T16:58:11.120Z,95151.00
2019-01-18T17:00:41.183Z,95152.59
2019-01-18T17:03:09.760Z,95152.36
2019-01-18T17:05:38.447Z,95153.09
2019-01-18T17:08:07.800Z,95150.59
2019-01-18T17:10:36.467Z,95151.31
2019-01-18T17:13:05.687Z,95154.86
2019-01-18T17:15:34.245Z,95149.12
2019-01-18T17:18:02.905Z,95147.75
2019-01-18T17:20:33.322Z,95152.90
2019-01-18T17:23:01.872Z,95147.80
2019-01-18T17:25:30.462Z,95155.61
2019-01-18T17:27:59.025Z,95155.54
2019-01-18T17:30:27.648Z,95157.30
2019-01-18T17:32:56.202Z,95158.78
2019-01-18T17:35:37.982Z,95157.73
2019-01-18T17:38:49.222Z,95155.73
2019-01-18T17:41:46.456Z,95161.69
2019-01-18T17:44:52.369Z,95156.95
2019-01-18T17:48:19.588Z,95154.94
2019-01-18T17:51:12.922Z,95164.19
2019-01-18T17:54:06.020Z,95162.36
2019-01-18T17:57:15.262Z,95155.91
2019-01-18T18:00:29.515Z,95162.92
2019-01-18T18:03:44.121Z,95161.05
2019-01-18T18:06:33.935Z,95164.03
2019-01-18T18:09:22.730Z,95156.34
2019-01-18T18:12:35.733Z,95160.63
2019-01-18T18:15:15.345Z,95163.41
2019-01-18T18:18:08.367Z,95160.30
2019-01-18T18:21:13.184Z,95158.98
2019-01-18T18:24:10.023Z,95158.73
2019-01-18T18:26:54.863Z,95164.34
2019-01-18T18:29:50.604Z,95158.50
2019-01-18T18:33:14.740Z,95155.20
2019-01-18T18:36:03.463Z,95147.44
2019-01-18T18:38:46.556Z,95159.41
2019-01-18T18:41:58.386Z,95155.22
2019-01-18T18:45:14.529Z,95152.13
2019-01-18T18:48:05.032Z,95149.72
2019-01-18T18:51:02.799Z,95146.93
2019-01-18T18:53:47.391Z,95152.14
2019-01-18T18:56:52.882Z,95135.94
2019-01-18T19:00:18.145Z,95145.26
2019-01-18T19:03:02.196Z,95152.17
2019-01-18T19:06:01.965Z,95139.94
2019-01-18T19:08:38.189Z,95137.39
2019-01-18T19:11:39.716Z,95133.73
2019-01-18T19:14:40.348Z,95128.75
2019-01-18T19:17:54.995Z,95129.53
2019-01-18T19:20:45.646Z,95123.36
2019-01-18T19:23:45.502Z,95129.46
2019-01-18T19:26:57.299Z,95130.94
2019-01-18T19:29:41.261Z,95116.49
2019-01-18T19:32:35.335Z,95123.80
2019-01-18T19:35:37.724Z,95123.81
2019-01-18T19:38:58.083Z,95124.56
2019-01-18T19:41:57.171Z,95126.56
2019-01-18T19:45:07.877Z,95122.75
2019-01-18T19:47:44.402Z,95124.25
2019-01-18T19:51:18.540Z,95116.07
2019-01-18T19:54:12.827Z,95122.40
2019-01-18T19:56:58.586Z,95120.88
2019-01-18T20:00:14.618Z,95119.86
2019-01-18T20:03:39.823Z,95115.52
2019-01-18T20:06:31.379Z,95122.30
2019-01-18T20:09:46.581Z,95122.37
2019-01-18T20:12:51.402Z,95132.20
2019-01-18T20:16:05.846Z,95122.48
2019-01-18T20:19:14.203Z,95115.44
2019-01-18T20:22:17.254Z,95130.50
2019-01-18T20:25:20.144Z,95130.96
2019-01-18T20:28:09.649Z,95126.23
2019-01-18T20:31:40.556Z,95123.26
2019-01-18T20:34:24.885Z,95119.55
2019-01-18T20:37:23.916Z,95123.70
2019-01-18T20:40:20.785Z,95125.92
2019-01-18T20:43:27.951Z,95122.89
2019-01-18T20:46:43.904Z,95128.16
2019-01-18T20:50:08.857Z,95130.52
2019-01-18T20:53:13.542Z,95131.29
2019-01-18T20:56:16.040Z,95135.04
2019-01-18T20:58:58.406Z,95131.63
2019-01-18T21:01:58.870Z,95137.11
2019-01-18T21:05:04.490Z,95127.50
2019-01-18T21:07:46.422Z,95123.83
2019-01-18T21:10:59.396Z,95127.21
2019-01-18T21:13:50.465Z,95124.23
2019-01-18T21:17:12.503Z,95122.61
2019-01-18T21:20:29.067Z,95117.55
2019-01-18T21:23:10.692Z,95122.96
2019-01-18T21:25:58.318Z,95119.75
2019-01-18T21:29:10.860Z,95120.44
2019-01-18T21:31:52.166Z,95127.77
2019-01-18T21:34:38.872Z,95120.41
2019-01-18T21:37:33.149Z,95123.48
2019-01-18T21:40:48.525Z,95114.20
2019-01-18T21:43:44.183Z,95116.33
2019-01-18T21:46:52.760Z,95115.71
2019-01-18T21:49:43.114Z,95119.00
2019-01-18T21:53:05.193Z,95116.88
2019-01-18T21:56:24.088Z,95125.05
2019-01-18T21:59:35.254Z,95114.38
2019-01-18T22:02:45.242Z,95117.64
2019-01-18T22:05:39.991Z,95121.20
2019-01-18T22:08:33.676Z,95115.13
2019-01-18T22:11:17.987Z,95113.22
2019-01-18T22:14:19.480Z,95122.05
2019-01-18T22:17:08.086Z,95114.73
2019-01-18T22:19:58.866Z,95120.27
2019-01-18T22:23:02.907Z,95119.37
2019-01-18T22:26:16.697Z,95117.30
2019-01-18T22:29:01.761Z,95122.66
2019-01-18T22:31:46.963Z,95125.23
2019-01-18T22:34:32.111Z,95128.11
2019-01-18T22:37:23.190Z,95129.73
2019-01-18T22:40:27.574Z,95124.14
2019-01-18T22:43:06.639Z,95123.54
2019-01-18T22:46:10.778Z,95129.44
2019-01-18T22:49:04.592Z,95131.65
2019-01-18T22:52:01.220Z,95133.89
2019-01-18T22:55:19.264Z,95133.61
2019-01-18T22:58:13.890Z,95129.73
2019-01-18T23:01:09.550Z,95125.90
2019-01-18T23:04:03.560Z,95125.09
2019-01-18T23:07:11.980Z,95131.05
2019-01-18T23:10:03.323Z,95127.36
2019-01-18T23:13:02.125Z,95128.19
2019-01-18T23:15:57.103Z,95125.23
2019-01-18T23:18:39.483Z,95120.75
2019-01-18T23:21:52.605Z,95118.73
2019-01-18T23:24:52.394Z,95120.22
2019-01-18T23:28:01.834Z,95116.49
2019-01-18T23:30:44.158Z,95114.28
2019-01-18T23:33:56.587Z,95116.49
2019-01-18T23:36:34.215Z,95114.13
2019-01-18T23:39:30.574Z,95111.47
2019-01-18T23:42:26.836Z,95114.49
2019-01-18T23:45:07.074Z,95114.41
2019-01-18T23:48:04.890Z,95112.20
2019-01-18T23:51:17.788Z,95107.94
2019-01-18T23:54:18.063Z,95108.08
2019-01-18T23:56:59.136Z,95100.20
